Time;durP1;ratioP1;P1;durP2;ratioP2;P2;SDS_P1;SDS_P2;PMS_P1;PMS_P2;Temp;Humidity;BMP_temperature;BMP_pressure;BME280_temperature;BME280_humidity;BME280_pressure;Samples;Min_cycle;Max_cycle;Signal;HPM_P1;HPM_P2
2023/12/08 00:01:14;;;;;;;18.52;7.78;;;;;;;;;;5052400;28;21000;-79
2023/12/08 00:03:40;;;;;;;19.35;7.30;;;;;;;;;;5048250;28;20021;-79
2023/12/08 00:06:09;;;;;;;16.17;7.22;;;;;;;;;;5043173;28;20085;-78
2023/12/08 00:08:37;;;;;;;12.52;7.38;;;;;;;;;;5041761;28;20091;-78
2023/12/08 00:11:03;;;;;;;12.20;6.63;;;;;;;;;;5046031;28;20021;-80
2023/12/08 00:13:28;;;;;;;17.58;7.72;;;1.80;99.90;;;;;;5045144;28;20067;-80
2023/12/08 00:15:56;;;;;;;19.40;7.53;;;;;;;;;;5041515;28;20478;-80
2023/12/08 00:18:22;;;;;;;11.75;6.28;;;;;;;;;;5047314;28;20082;-80
2023/12/08 00:20:48;;;;;;;13.48;7.88;;;;;;;;;;5046965;28;20044;-81
2023/12/08 00:23:14;;;;;;;12.00;6.10;;;;;;;;;;5043515;28;20033;-80
2023/12/08 00:25:40;;;;;;;12.35;5.75;;;;;;;;;;5041643;28;20076;-80
2023/12/08 00:28:07;;;;;;;12.57;5.93;;;;;;;;;;5043567;28;20033;-80
2023/12/08 00:30:33;;;;;;;15.93;6.22;;;;;;;;;;5047788;28;20145;-80
2023/12/08 00:32:59;;;;;;;16.15;7.05;;;;;;;;;;5043943;28;20116;-80
2023/12/08 00:35:25;;;;;;;13.68;6.22;;;;;;;;;;5042220;28;20025;-80
2023/12/08 00:37:51;;;;;;;16.55;6.90;;;;;;;;;;5044080;28;20048;-80
2023/12/08 00:40:17;;;;;;;15.10;7.15;;;;;;;;;;5042946;28;20181;-81
2023/12/08 00:42:43;;;;;;;13.55;5.60;;;;;;;;;;5046834;28;20051;-80
2023/12/08 00:45:09;;;;;;;12.60;6.38;;;;;;;;;;5043996;28;20021;-80
2023/12/08 00:47:35;;;;;;;12.07;6.03;;;;;;;;;;5053727;28;20041;-80
2023/12/08 00:50:01;;;;;;;15.70;7.10;;;;;;;;;;5042297;28;20033;-81
2023/12/08 00:52:27;;;;;;;14.75;6.32;;;;;;;;;;5045032;28;20044;-80
2023/12/08 00:54:53;;;;;;;15.50;7.90;;;;;;;;;;5042772;28;20044;-80
2023/12/08 00:57:19;;;;;;;9.98;5.15;;;;;;;;;;5052319;28;20375;-80
2023/12/08 00:59:45;;;;;;;18.40;7.88;;;;;;;;;;5042167;28;20461;-80
2023/12/08 01:02:11;;;;;;;12.45;5.78;;;;;;;;;;5041003;28;20038;-80
2023/12/08 01:04:37;;;;;;;16.42;7.43;;;;;;;;;;5042144;28;20032;-80
2023/12/08 01:07:03;;;;;;;14.88;6.57;;;;;;;;;;5044036;28;20044;-80
2023/12/08 01:09:29;;;;;;;11.75;6.22;;;;;;;;;;5046074;28;20050;-80
2023/12/08 01:11:55;;;;;;;13.65;6.85;;;;;;;;;;5040251;28;20021;-80
2023/12/08 01:14:21;;;;;;;14.15;6.20;;;;;;;;;;5042313;28;20021;-80
2023/12/08 01:16:47;;;;;;;11.93;4.53;;;;;;;;;;5041820;28;20032;-79
2023/12/08 01:19:13;;;;;;;15.13;5.88;;;;;;;;;;5039888;28;20507;-79
2023/12/08 01:21:40;;;;;;;13.00;6.40;;;;;;;;;;5050459;28;20025;-78
2023/12/08 01:24:06;;;;;;;12.57;5.72;;;;;;;;;;5070282;28;20009;-79
2023/12/08 01:26:32;;;;;;;16.77;6.03;;;;;;;;;;5048496;28;20124;-80
2023/12/08 01:28:58;;;;;;;11.07;5.90;;;;;;;;;;5043964;28;20024;-80
2023/12/08 01:31:24;;;;;;;14.73;5.93;;;;;;;;;;5045382;28;20048;-79
2023/12/08 01:33:50;;;;;;;16.98;8.10;;;;;;;;;;5047608;28;20020;-79
2023/12/08 01:36:16;;;;;;;16.27;7.25;;;;;;;;;;5043477;28;20482;-79
2023/12/08 01:38:44;;;;;;;13.35;5.85;;;;;;;;;;5044279;28;20444;-79
2023/12/08 01:41:13;;;;;;;11.20;5.80;;;;;;;;;;5047104;28;20025;-80
2023/12/08 01:43:39;;;;;;;18.58;7.30;;;;;;;;;;5040364;28;20433;-80
2023/12/08 01:46:05;;;;;;;14.45;7.15;;;;;;;;;;5042846;28;20025;-80
2023/12/08 01:48:31;;;;;;;17.42;7.57;;;;;;;;;;5046591;28;20522;-80
2023/12/08 01:50:57;;;;;;;15.25;6.40;;;;;;;;;;5041052;28;20071;-80
2023/12/08 01:53:23;;;;;;;11.52;7.35;;;;;;;;;;5046183;28;20033;-79
2023/12/08 01:55:50;;;;;;;13.32;6.80;;;;;;;;;;5042805;28;20021;-79
2023/12/08 01:58:17;;;;;;;12.65;6.50;;;1.20;99.90;;;;;;5043396;28;20029;-79
2023/12/08 02:00:46;;;;;;;14.27;7.57;;;;;;;;;;5042043;28;20413;-80
2023/12/08 02:03:13;;;;;;;13.40;6.57;;;;;;;;;;5042511;28;20548;-79
2023/12/08 02:05:40;;;;;;;15.57;7.38;;;;;;;;;;5037962;28;20479;-80
2023/12/08 02:08:06;;;;;;;14.88;5.88;;;;;;;;;;5041581;28;20467;-79
2023/12/08 02:10:32;;;;;;;16.50;7.30;;;;;;;;;;5043491;28;20431;-79
2023/12/08 02:12:58;;;;;;;13.65;5.93;;;;;;;;;;5045264;28;20052;-79
2023/12/08 02:15:24;;;;;;;12.38;5.57;;;;;;;;;;5043630;28;20063;-80
2023/12/08 02:17:50;;;;;;;15.18;7.00;;;;;;;;;;5041563;28;20037;-80
2023/12/08 02:20:16;;;;;;;15.32;6.97;;;;;;;;;;5042302;28;20043;-79
2023/12/08 02:22:42;;;;;;;14.07;6.22;;;;;;;;;;5044972;28;20051;-80
2023/12/08 02:25:08;;;;;;;17.38;7.65;;;;;;;;;;5039884;28;20052;-80
2023/12/08 02:27:34;;;;;;;14.40;6.68;;;;;;;;;;5040356;28;20037;-79
2023/12/08 02:30:00;;;;;;;13.90;6.82;;;;;;;;;;5042687;28;20506;-80
2023/12/08 02:32:32;;;;;;;14.25;6.68;;;;;;;;;;5040677;28;20025;-79
2023/12/08 02:35:01;;;;;;;13.63;7.13;;;2.30;99.90;;;;;;5043284;28;20025;-79
2023/12/08 02:37:28;;;;;;;10.45;5.68;;;;;;;;;;5045862;28;20021;-79
2023/12/08 02:39:54;;;;;;;13.85;7.13;;;;;;;;;;5045089;28;20082;-80
2023/12/08 02:42:20;;;;;;;14.68;6.93;;;;;;;;;;5038959;28;20029;-80
2023/12/08 02:44:46;;;;;;;14.73;7.45;;;;;;;;;;5037518;28;20040;-80
2023/12/08 02:47:12;;;;;;;15.95;8.27;;;;;;;;;;5037055;28;20499;-79
2023/12/08 02:49:40;;;;;;;13.00;5.47;;;;;;;;;;5035847;28;20022;-80
2023/12/08 02:52:06;;;;;;;13.95;7.32;;;;;;;;;;5042335;28;20044;-79
2023/12/08 02:54:32;;;;;;;16.00;7.53;;;;;;;;;;5041065;28;20105;-79
2023/12/08 02:56:58;;;;;;;17.30;6.78;;;;;;;;;;5039842;28;20120;-80
2023/12/08 02:59:24;;;;;;;15.60;6.38;;;;;;;;;;5043565;28;20040;-79
2023/12/08 03:01:50;;;;;;;15.85;6.88;;;;;;;;;;5041696;28;20028;-79
2023/12/08 03:04:15;;;;;;;19.02;6.70;;;;;;;;;;5041850;28;20500;-79
2023/12/08 03:06:41;;;;;;;13.90;6.43;;;;;;;;;;5042282;28;20062;-79
2023/12/08 03:09:08;;;;;;;15.60;7.18;;;;;;;;;;5044113;28;20025;-79
2023/12/08 03:11:34;;;;;;;17.33;7.95;;;;;;;;;;5042470;28;21282;-80
2023/12/08 03:14:00;;;;;;;11.82;5.60;;;;;;;;;;5044757;28;20022;-80
2023/12/08 03:16:26;;;;;;;17.80;7.78;;;;;;;;;;5041584;28;20029;-80
2023/12/08 03:18:52;;;;;;;12.80;6.13;;;;;;;;;;5039518;28;20402;-79
2023/12/08 03:21:22;;;;;;;21.95;7.50;;;;;;;;;;5042463;28;20171;-79
2023/12/08 03:23:48;;;;;;;13.32;5.97;;;;;;;;;;5059354;28;20025;-79
2023/12/08 03:26:14;;;;;;;13.38;6.63;;;;;;;;;;5041419;28;20406;-78
2023/12/08 03:28:40;;;;;;;15.70;7.07;;;;;;;;;;5041182;28;20033;-79
2023/12/08 03:31:06;;;;;;;14.73;7.95;;;;;;;;;;5043131;28;20088;-79
2023/12/08 03:33:32;;;;;;;17.63;7.35;;;;;;;;;;5057837;28;20029;-79
2023/12/08 03:36:02;;;;;;;16.10;7.43;;;;;;;;;;5056937;28;20018;-79
2023/12/08 03:38:27;;;;;;;16.77;8.30;;;;;;;;;;5051851;28;20033;-79
2023/12/08 03:40:53;;;;;;;14.02;7.40;;;;;;;;;;5044812;28;20044;-80
2023/12/08 03:43:19;;;;;;;19.42;7.45;;;;;;;;;;5046575;28;20037;-79
2023/12/08 03:45:45;;;;;;;19.02;7.78;;;;;;;;;;5043940;28;20048;-79
2023/12/08 03:48:11;;;;;;;14.23;6.07;;;;;;;;;;5045573;28;20030;-80
2023/12/08 03:50:37;;;;;;;13.82;7.43;;;;;;;;;;5053461;28;20048;-80
2023/12/08 03:53:04;;;;;;;16.05;7.65;;;;;;;;;;5044291;28;20021;-79
2023/12/08 03:55:30;;;;;;;19.00;6.70;;;;;;;;;;5046586;28;20080;-79
2023/12/08 03:57:56;;;;;;;16.40;7.07;;;;;;;;;;5046165;28;20037;-79
2023/12/08 04:00:22;;;;;;;22.15;8.65;;;;;;;;;;5054643;28;21630;-79
2023/12/08 04:02:48;;;;;;;18.25;9.40;;;;;;;;;;5046294;28;20506;-80
2023/12/08 04:05:14;;;;;;;17.33;8.10;;;;;;;;;;5043420;28;20065;-79
2023/12/08 04:07:40;;;;;;;16.42;7.93;;;;;;;;;;5041091;28;20131;-79
2023/12/08 04:10:06;;;;;;;21.73;7.55;;;;;;;;;;5046165;28;20033;-79
2023/12/08 04:12:32;;;;;;;13.73;6.55;;;;;;;;;;5043794;28;20513;-78
2023/12/08 04:14:58;;;;;;;15.60;6.78;;;;;;;;;;5041079;28;20036;-79
2023/12/08 04:17:24;;;;;;;18.08;8.05;;;;;;;;;;5042655;28;20425;-78
2023/12/08 04:19:50;;;;;;;13.25;6.57;;;;;;;;;;5049249;28;20025;-79
2023/12/08 04:22:16;;;;;;;21.65;8.13;;;;;;;;;;5041547;28;20029;-80
2023/12/08 04:24:42;;;;;;;16.10;8.45;;;;;;;;;;5055767;28;20047;-80
2023/12/08 04:27:09;;;;;;;15.10;7.88;;;;;;;;;;5041917;28;20036;-79
2023/12/08 04:29:35;;;;;;;16.10;7.97;;;;;;;;;;5045128;28;20036;-80
2023/12/08 04:32:01;;;;;;;14.80;7.28;;;;;;;;;;5043539;28;20060;-79
2023/12/08 04:34:27;;;;;;;17.05;7.78;;;;;;;;;;5044378;28;20457;-79
2023/12/08 04:36:53;;;;;;;17.98;7.95;;;;;;;;;;5056693;28;20112;-78
2023/12/08 04:39:19;;;;;;;14.45;7.88;;;;;;;;;;5042060;28;20031;-78
2023/12/08 04:41:45;;;;;;;13.90;7.47;;;;;;;;;;5045093;28;20100;-79
2023/12/08 04:44:11;;;;;;;15.32;7.30;;;;;;;;;;5044507;28;20049;-79
2023/12/08 04:46:37;;;;;;;16.90;7.93;;;;;;;;;;5042086;28;20120;-78
2023/12/08 04:49:03;;;;;;;18.73;8.82;;;;;;;;;;5045796;28;20024;-79
2023/12/08 04:51:29;;;;;;;17.20;7.88;;;;;;;;;;5029183;28;20021;-79
2023/12/08 04:53:55;;;;;;;19.15;8.18;;;;;;;;;;5039511;28;20072;-79
2023/12/08 04:56:21;;;;;;;16.90;7.40;;;;;;;;;;5035759;28;20032;-79
2023/12/08 04:58:47;;;;;;;18.40;7.57;;;;;;;;;;5040360;28;20518;-79
2023/12/08 05:01:14;;;;;;;14.98;6.88;;;;;;;;;;5044278;28;20493;-79
2023/12/08 05:03:40;;;;;;;16.20;8.13;;;;;;;;;;5047743;28;20031;-81
2023/12/08 05:06:07;;;;;;;13.18;7.72;;;;;;;;;;5046187;28;20045;-80
2023/12/08 05:08:33;;;;;;;17.58;7.53;;;;;;;;;;5045493;28;20045;-80
2023/12/08 05:10:59;;;;;;;18.73;8.80;;;;;;;;;;5044688;28;20033;-80
2023/12/08 05:13:25;;;;;;;15.52;7.65;;;;;;;;;;5038739;28;20368;-80
2023/12/08 05:15:51;;;;;;;23.10;9.40;;;;;;;;;;5041184;28;20122;-80
2023/12/08 05:18:19;;;;;;;15.40;7.05;;;;;;;;;;5043982;28;20029;-79
2023/12/08 05:20:45;;;;;;;15.48;7.15;;;;;;;;;;5045318;28;20096;-79
2023/12/08 05:23:11;;;;;;;23.83;8.00;;;1.90;99.90;;;;;;5042327;28;20044;-80
2023/12/08 05:25:37;;;;;;;18.15;8.32;;;;;;;;;;5042038;28;20374;-79
2023/12/08 05:28:03;;;;;;;18.55;8.48;;;;;;;;;;5045194;28;20041;-79
2023/12/08 05:30:29;;;;;;;17.55;6.90;;;;;;;;;;5042028;28;20025;-80
2023/12/08 05:32:55;;;;;;;15.90;7.60;;;;;;;;;;5044093;28;20017;-80
2023/12/08 05:35:21;;;;;;;14.20;7.35;;;;;;;;;;5040789;28;20510;-79
2023/12/08 05:37:47;;;;;;;17.83;8.77;;;;;;;;;;5038372;28;20086;-80
2023/12/08 05:40:13;;;;;;;15.68;8.07;;;;;;;;;;5043380;28;20025;-81
2023/12/08 05:42:39;;;;;;;24.25;9.75;;;;;;;;;;5040723;28;20099;-80
2023/12/08 05:45:05;;;;;;;16.27;8.82;;;;;;;;;;5040581;28;20482;-81
2023/12/08 05:47:31;;;;;;;17.02;7.78;;;;;;;;;;5072763;28;20207;-80
2023/12/08 05:49:57;;;;;;;15.02;8.15;;;;;;;;;;5038038;28;20306;-81
2023/12/08 05:52:23;;;;;;;19.88;8.02;;;;;;;;;;5044090;28;20075;-82
2023/12/08 05:54:49;;;;;;;18.02;8.75;;;;;;;;;;5041590;28;20032;-82
2023/12/08 05:57:15;;;;;;;14.68;7.22;;;;;;;;;;5048015;28;20017;-82
2023/12/08 05:59:41;;;;;;;18.98;8.02;;;;;;;;;;5040189;28;20037;-82
2023/12/08 06:02:07;;;;;;;18.23;7.15;;;;;;;;;;5052220;28;20108;-82
2023/12/08 06:04:34;;;;;;;20.83;8.85;;;;;;;;;;5041603;28;20479;-82
2023/12/08 06:06:59;;;;;;;16.30;8.05;;;;;;;;;;5052135;28;20035;-82
2023/12/08 06:09:25;;;;;;;15.38;7.95;;;;;;;;;;5040974;28;20673;-82
2023/12/08 06:11:51;;;;;;;15.93;7.93;;;;;;;;;;5049188;28;20016;-82
2023/12/08 06:14:19;;;;;;;17.80;7.97;;;;;;;;;;5045595;28;20031;-82
2023/12/08 06:16:44;;;;;;;19.85;7.85;;;;;;;;;;5039453;28;20592;-84
2023/12/08 06:19:11;;;;;;;16.92;9.23;;;;;;;;;;5040678;28;20025;-82
2023/12/08 06:21:36;;;;;;;16.45;8.32;;;;;;;;;;5057311;28;20033;-81
2023/12/08 06:24:02;;;;;;;13.80;7.53;;;;;;;;;;5043298;28;20036;-82
2023/12/08 06:26:28;;;;;;;16.75;7.45;;;;;;;;;;5047749;28;20035;-81
2023/12/08 06:28:54;;;;;;;17.70;7.18;;;;;;;;;;5048403;28;20491;-81
2023/12/08 06:31:20;;;;;;;18.38;8.30;;;;;;;;;;5044702;28;20395;-81
2023/12/08 06:33:46;;;;;;;20.55;9.43;;;;;;;;;;5045567;28;20029;-82
2023/12/08 06:36:13;;;;;;;29.90;14.00;;;;;;;;;;5039609;28;20025;-81
2023/12/08 06:38:39;;;;;;;31.45;12.65;;;;;;;;;;5046260;28;20035;-81
2023/12/08 06:41:05;;;;;;;26.27;10.45;;;;;;;;;;5049382;28;20082;-80
2023/12/08 06:43:32;;;;;;;19.50;10.57;;;;;;;;;;5040580;28;20037;-81
2023/12/08 06:45:58;;;;;;;21.30;9.02;;;;;;;;;;5044067;28;20028;-81
2023/12/08 06:48:23;;;;;;;17.98;8.35;;;;;;;;;;5044934;28;20036;-81
2023/12/08 06:50:51;;;;;;;20.05;9.27;;;;;;;;;;5040753;28;20021;-81
2023/12/08 06:53:17;;;;;;;18.55;8.90;;;;;;;;;;5045457;28;20025;-81
2023/12/08 06:55:44;;;;;;;18.35;7.97;;;;;;;;;;5047861;28;20421;-81
2023/12/08 06:58:10;;;;;;;18.33;7.07;;;;;;;;;;5046001;28;20025;-81
2023/12/08 07:00:36;;;;;;;23.40;9.65;;;;;;;;;;5048939;28;20082;-81
2023/12/08 07:03:03;;;;;;;16.40;7.03;;;;;;;;;;5036582;28;20041;-80
2023/12/08 07:05:29;;;;;;;19.20;9.15;;;;;;;;;;5049086;28;20609;-81
2023/12/08 07:07:56;;;;;;;17.80;9.45;;;;;;;;;;5051601;28;20268;-81
2023/12/08 07:10:22;;;;;;;16.63;7.38;;;;;;;;;;5045882;28;20029;-81
2023/12/08 07:12:48;;;;;;;15.52;8.05;;;;;;;;;;5050248;28;20092;-81
2023/12/08 07:15:14;;;;;;;18.88;7.57;;;;;;;;;;5047502;28;20133;-81
2023/12/08 07:17:40;;;;;;;20.23;9.55;;;;;;;;;;5049734;28;20033;-81
2023/12/08 07:20:09;;;;;;;22.40;9.30;;;;;;;;;;5046585;28;20038;-81
2023/12/08 07:22:35;;;;;;;17.45;7.90;;;;;;;;;;5049311;28;20039;-81
2023/12/08 07:25:03;;;;;;;20.65;8.73;;;;;;;;;;5047271;28;20033;-81
2023/12/08 07:27:29;;;;;;;19.63;8.75;;;;;;;;;;5049114;28;20473;-81
2023/12/08 07:29:55;;;;;;;19.20;9.07;;;;;;;;;;5051670;28;20033;-81
2023/12/08 07:32:20;;;;;;;23.10;8.88;;;;;;;;;;5047135;28;20477;-81
2023/12/08 07:34:46;;;;;;;19.40;9.10;;;;;;;;;;5050406;28;20040;-81
2023/12/08 07:37:12;;;;;;;19.75;8.45;;;;;;;;;;5048358;28;20091;-82
2023/12/08 07:39:38;;;;;;;17.73;7.90;;;1.10;99.90;;;;;;5051805;28;20029;-81
2023/12/08 07:42:04;;;;;;;19.83;9.85;;;;;;;;;;5029969;28;20067;-81
2023/12/08 07:44:30;;;;;;;22.65;8.93;;;;;;;;;;5053883;28;20444;-81
2023/12/08 07:46:56;;;;;;;21.23;8.32;;;;;;;;;;5044370;28;20032;-81
2023/12/08 07:49:23;;;;;;;15.07;8.50;;;;;;;;;;5049595;28;20425;-81
2023/12/08 07:51:49;;;;;;;24.17;9.48;;;;;;;;;;5048107;28;20376;-82
2023/12/08 07:54:15;;;;;;;20.15;7.95;;;;;;;;;;5064828;28;20039;-81
2023/12/08 07:56:41;;;;;;;18.67;8.25;;;;;;;;;;5056742;28;20033;-81
2023/12/08 07:59:07;;;;;;;25.77;10.90;;;;;;;;;;5051664;28;20025;-82
2023/12/08 08:01:33;;;;;;;20.38;9.10;;;;;;;;;;5043782;28;20064;-81
2023/12/08 08:03:59;;;;;;;19.20;9.55;;;;;;;;;;5047967;28;20056;-81
2023/12/08 08:06:25;;;;;;;23.77;10.57;;;1.90;99.90;;;;;;5050704;28;20021;-81
2023/12/08 08:08:51;;;;;;;18.58;9.10;;;;;;;;;;5049653;28;20398;-81
2023/12/08 08:11:17;;;;;;;20.85;8.38;;;;;;;;;;5048306;28;20017;-81
2023/12/08 08:13:42;;;;;;;19.10;8.48;;;;;;;;;;5049899;28;20454;-82
2023/12/08 08:16:08;;;;;;;18.10;8.13;;;;;;;;;;5029227;28;20040;-81
2023/12/08 08:18:34;;;;;;;19.60;8.23;;;;;;;;;;5044748;28;20033;-81
2023/12/08 08:21:00;;;;;;;19.40;9.55;;;;;;;;;;5046362;28;20033;-81
2023/12/08 08:23:26;;;;;;;21.58;9.98;;;;;;;;;;5051493;28;20027;-81
2023/12/08 08:25:52;;;;;;;16.58;7.72;;;;;;;;;;5048383;28;20029;-81
2023/12/08 08:28:20;;;;;;;21.23;9.02;;;;;;;;;;5047229;28;20074;-81
2023/12/08 08:30:46;;;;;;;19.70;9.55;;;;;;;;;;5041396;28;20116;-81
2023/12/08 08:33:12;;;;;;;20.95;9.35;;;;;;;;;;5046961;28;20104;-81
2023/12/08 08:35:38;;;;;;;23.40;11.50;;;;;;;;;;5044159;28;20029;-81
2023/12/08 08:38:04;;;;;;;23.08;10.30;;;;;;;;;;5042455;28;20127;-81
2023/12/08 08:40:31;;;;;;;32.17;12.27;;;;;;;;;;5046907;28;20116;-81
2023/12/08 08:42:57;;;;;;;22.58;9.15;;;;;;;;;;5046268;28;20029;-81
2023/12/08 08:45:23;;;;;;;22.45;10.43;;;;;;;;;;5045017;28;20039;-81
2023/12/08 08:47:49;;;;;;;26.67;10.93;;;;;;;;;;5047387;28;20487;-81
2023/12/08 08:50:15;;;;;;;24.83;10.93;;;;;;;;;;5049408;28;20024;-81
2023/12/08 08:52:42;;;;;;;25.63;10.85;;;;;;;;;;5047709;28;20051;-81
2023/12/08 08:55:10;;;;;;;28.00;12.05;;;;;;;;;;5048282;28;20024;-81
2023/12/08 08:57:36;;;;;;;30.38;12.40;;;;;;;;;;5048450;28;20063;-81
2023/12/08 09:00:04;;;;;;;24.40;10.20;;;;;;;;;;5046044;28;20064;-81
2023/12/08 09:02:30;;;;;;;22.25;10.63;;;;;;;;;;5046914;28;20029;-81
2023/12/08 09:04:56;;;;;;;22.70;10.13;;;;;;;;;;5046338;28;20090;-81
2023/12/08 09:07:22;;;;;;;20.92;10.15;;;;;;;;;;5049787;28;20029;-81
2023/12/08 09:09:48;;;;;;;20.48;8.80;;;;;;;;;;5046477;28;20067;-82
2023/12/08 09:12:15;;;;;;;20.25;9.35;;;;;;;;;;5041458;28;20021;-81
2023/12/08 09:14:41;;;;;;;20.15;9.05;;;;;;;;;;5047189;28;20021;-81
2023/12/08 09:17:07;;;;;;;17.65;7.72;;;;;;;;;;5045382;28;20029;-81
2023/12/08 09:19:33;;;;;;;16.85;8.55;;;;;;;;;;5048347;28;21026;-81
2023/12/08 09:22:01;;;;;;;22.02;8.93;;;;;;;;;;5045547;28;20510;-81
2023/12/08 09:24:27;;;;;;;18.17;8.65;;;;;;;;;;5045907;28;20036;-81
2023/12/08 09:26:53;;;;;;;18.50;8.63;;;;;;;;;;5041240;28;20029;-81
2023/12/08 09:29:19;;;;;;;22.13;8.57;;;;;;;;;;5045342;28;20021;-81
2023/12/08 09:31:45;;;;;;;16.08;8.05;;;;;;;;;;5043455;28;20052;-81
2023/12/08 09:34:11;;;;;;;21.13;8.98;;;;;;;;;;5046776;28;20167;-81
2023/12/08 09:36:37;;;;;;;22.45;10.70;;;;;;;;;;5046355;28;20491;-81
2023/12/08 09:39:08;;;;;;;24.42;9.40;;;;;;;;;;5041938;28;20565;-80
2023/12/08 09:41:35;;;;;;;24.67;10.02;;;;;;;;;;5048443;28;20043;-78
2023/12/08 09:44:12;;;;;;;19.67;8.13;;;2.70;99.90;;;;;;5047378;28;20372;-80
2023/12/08 09:46:38;;;;;;;18.60;9.25;;;;;;;;;;5048031;28;20470;-81
2023/12/08 09:49:04;;;;;;;19.33;7.93;;;;;;;;;;5046164;28;20040;-81
2023/12/08 09:51:30;;;;;;;20.88;8.88;;;;;;;;;;5046412;28;20124;-81
2023/12/08 09:53:57;;;;;;;16.08;8.23;;;;;;;;;;5027890;28;20122;-81
2023/12/08 09:56:25;;;;;;;18.88;8.93;;;2.80;99.90;;;;;;5046612;28;20087;-81
2023/12/08 09:58:52;;;;;;;18.63;9.25;;;;;;;;;;5040080;28;20025;-80
2023/12/08 10:01:18;;;;;;;18.20;7.88;;;;;;;;;;5043591;28;20506;-80
2023/12/08 10:03:44;;;;;;;17.40;7.60;;;;;;;;;;5044846;28;20394;-81
2023/12/08 10:06:10;;;;;;;20.73;7.90;;;;;;;;;;5039436;28;20022;-81
2023/12/08 10:08:38;;;;;;;20.20;8.77;;;;;;;;;;5043817;28;20025;-80
2023/12/08 10:11:05;;;;;;;22.80;8.68;;;;;;;;;;5055086;28;20021;-80
2023/12/08 10:13:31;;;;;;;19.80;8.38;;;;;;;;;;5065908;28;20028;-82
2023/12/08 10:15:57;;;;;;;17.27;7.82;;;;;;;;;;5045675;28;20048;-81
2023/12/08 10:18:27;;;;;;;18.50;7.88;;;2.90;99.90;;;;;;5046199;28;20560;-81
2023/12/08 10:20:53;;;;;;;20.13;8.18;;;;;;;;;;5042561;28;20040;-81
2023/12/08 10:23:22;;;;;;;14.05;6.60;;;;;;;;;;5044384;28;20116;-81
2023/12/08 10:25:48;;;;;;;17.88;7.63;;;2.90;99.90;;;;;;5044583;28;20574;-81
2023/12/08 10:28:14;;;;;;;16.25;6.93;;;;;;;;;;5044299;28;20041;-81
2023/12/08 10:30:50;;;;;;;13.27;6.70;;;;;;;;;;5041118;28;20052;-81
2023/12/08 10:33:23;;;;;;;19.48;7.70;;;;;;;;;;5045177;28;20026;-81
2023/12/08 10:35:51;;;;;;;22.90;8.50;;;;;;;;;;5039561;28;20110;-81
2023/12/08 10:38:17;;;;;;;19.05;8.25;;;;;;;;;;5046403;28;20040;-81
2023/12/08 10:40:50;;;;;;;17.25;7.75;;;;;;;;;;5047672;28;20406;-81
2023/12/08 10:43:22;;;;;;;17.35;7.20;;;;;;;;;;5057566;28;20029;-81
2023/12/08 10:45:50;;;;;;;18.65;8.80;;;;;;;;;;5043349;28;20033;-81
2023/12/08 10:48:16;;;;;;;13.43;7.05;;;;;;;;;;5046670;28;20116;-81
2023/12/08 10:50:42;;;;;;;14.98;6.97;;;;;;;;;;5046089;28;20021;-81
2023/12/08 10:53:09;;;;;;;15.40;8.90;;;3.90;99.90;;;;;;5046990;28;20048;-80
2023/12/08 10:55:35;;;;;;;15.68;7.40;;;;;;;;;;5045437;28;20770;-81
2023/12/08 10:58:02;;;;;;;17.40;7.65;;;;;;;;;;5052249;28;20049;-81
2023/12/08 11:00:32;;;;;;;15.68;7.25;;;;;;;;;;5068804;28;20053;-81
2023/12/08 11:02:58;;;;;;;16.63;7.32;;;;;;;;;;5061218;28;20446;-81
2023/12/08 11:05:37;;;;;;;16.95;7.20;;;;;;;;;;5074132;28;20062;-81
2023/12/08 11:08:06;;;;;;;13.45;7.18;;;;;;;;;;5067593;28;20478;-81
2023/12/08 11:10:36;;;;;;;15.43;7.32;;;;;;;;;;5073003;28;20024;-81
2023/12/08 11:13:21;;;;;;;20.85;7.65;;;;;;;;;;5071492;28;20409;-81
2023/12/08 11:16:01;;;;;;;19.00;9.07;;;;;;;;;;5066319;28;20024;-81
2023/12/08 11:18:30;;;;;;;18.58;8.35;;;;;;;;;;5063515;28;20029;-81
2023/12/08 11:20:56;;;;;;;19.40;8.00;;;;;;;;;;5062853;28;20035;-81
2023/12/08 11:23:22;;;;;;;20.58;8.00;;;;;;;;;;5083416;28;20025;-81
2023/12/08 11:25:57;;;;;;;14.35;6.53;;;;;;;;;;5066949;28;20044;-81
2023/12/08 11:28:24;;;;;;;20.42;7.97;;;;;;;;;;5088844;28;20028;-81
2023/12/08 11:30:54;;;;;;;15.40;7.68;;;;;;;;;;5084519;28;20056;-82
2023/12/08 11:33:27;;;;;;;16.63;7.57;;;;;;;;;;5087756;28;20023;-82
2023/12/08 11:35:53;;;;;;;;;;;;;;;;;;5085024;28;20063;-81
2023/12/08 11:38:27;;;;;;;12.48;6.28;;;;;;;;;;5075072;28;20321;-81
2023/12/08 11:40:54;;;;;;;16.30;7.57;;;;;;;;;;5071906;28;20028;-81
2023/12/08 11:43:20;;;;;;;15.98;8.30;;;;;;;;;;5083458;28;20212;-81
2023/12/08 11:45:48;;;;;;;17.35;7.45;;;;;;;;;;5066306;28;20083;-81
2023/12/08 11:48:14;;;;;;;19.88;7.28;;;;;;;;;;5084931;28;20071;-80
2023/12/08 11:50:41;;;;;;;16.65;7.95;;;;;;;;;;5089889;28;20012;-81
2023/12/08 11:53:07;;;;;;;14.68;6.28;;;;;;;;;;5094230;28;20120;-81
2023/12/08 11:55:33;;;;;;;20.10;8.00;;;;;;;;;;5078559;28;20351;-81
2023/12/08 11:58:02;;;;;;;15.07;7.25;;;;;;;;;;5074642;28;20046;-81
2023/12/08 12:00:28;;;;;;;13.43;6.60;;;;;;;;;;5093850;28;20027;-81
2023/12/08 12:02:55;;;;;;;18.20;8.68;;;;;;;;;;5075604;28;20028;-81
2023/12/08 12:05:21;;;;;;;19.65;8.27;;;;;;;;;;5092260;28;20028;-81
2023/12/08 12:07:54;;;;;;;15.35;6.93;;;;;;;;;;5090901;28;20032;-82
2023/12/08 12:10:24;;;;;;;;;;;4.60;99.90;;;;;;5078325;28;20448;-81
2023/12/08 12:13:14;;;;;;;16.67;6.85;;;;;;;;;;5097521;28;19915;-81
2023/12/08 12:15:41;;;;;;;18.75;7.70;;;;;;;;;;5075892;28;20027;-81
2023/12/08 12:18:07;;;;;;;18.90;8.80;;;;;;;;;;5094677;28;20020;-81
2023/12/08 12:20:40;;;;;;;15.85;7.28;;;;;;;;;;5082334;28;20052;-81
2023/12/08 12:23:06;;;;;;;16.30;7.75;;;;;;;;;;5093023;28;20043;-81
2023/12/08 12:25:33;;;;;;;19.00;8.88;;;;;;;;;;5074647;28;20020;-81
2023/12/08 12:27:59;;;;;;;23.50;8.13;;;;;;;;;;5079765;28;20034;-79
2023/12/08 12:30:25;;;;;;;17.48;8.40;;;;;;;;;;5114214;28;20068;-82
2023/12/08 12:32:51;;;;;;;17.63;6.65;;;;;;;;;;5094128;28;20031;-81
2023/12/08 12:35:18;;;;;;;14.57;7.80;;;;;;;;;;5092056;28;20024;-81
2023/12/08 12:37:44;;;;;;;15.95;7.90;;;;;;;;;;5092694;28;20021;-81
2023/12/08 12:40:11;;;;;;;17.33;7.57;;;4.50;99.90;;;;;;5073412;28;20229;-80
2023/12/08 12:42:40;;;;;;;16.35;7.78;;;;;;;;;;5074250;28;20480;-80
2023/12/08 12:45:07;;;;;;;14.07;7.00;;;;;;;;;;5073201;28;20024;-81
2023/12/08 12:47:33;;;;;;;15.35;6.63;;;;;;;;;;5073122;28;20056;-81
2023/12/08 12:50:00;;;;;;;13.38;6.75;;;;;;;;;;5085362;28;20052;-81
2023/12/08 12:52:27;;;;;;;16.00;7.30;;;;;;;;;;5088598;28;20042;-81
2023/12/08 12:54:53;;;;;;;14.85;6.72;;;;;;;;;;5089389;28;20493;-81
2023/12/08 12:57:40;;;;;;;13.20;7.03;;;;;;;;;;5086038;28;20028;-81
2023/12/08 13:00:09;;;;;;;16.20;7.50;;;;;;;;;;5088071;28;20489;-81
2023/12/08 13:02:35;;;;;;;16.98;7.80;;;;;;;;;;5065508;28;20039;-81
2023/12/08 13:05:07;;;;;;;16.48;6.63;;;;;;;;;;5085043;28;20028;-81
2023/12/08 13:07:35;;;;;;;16.42;7.22;;;;;;;;;;5070763;28;20505;-81
2023/12/08 13:10:04;;;;;;;17.08;7.32;;;;;;;;;;5088570;28;20489;-81
2023/12/08 13:12:31;;;;;;;16.13;7.25;;;;;;;;;;5083484;28;20489;-81
2023/12/08 13:14:58;;;;;;;15.70;6.55;;;;;;;;;;5073519;28;20361;-81
2023/12/08 13:17:24;;;;;;;13.45;6.78;;;;;;;;;;5071788;28;20024;-81
2023/12/08 13:19:51;;;;;;;14.90;6.60;;;;;;;;;;5087660;28;20034;-82
2023/12/08 13:22:17;;;;;;;13.52;6.57;;;;;;;;;;5072230;28;20504;-81
2023/12/08 13:24:47;;;;;;;15.27;6.55;;;;;;;;;;5092840;28;20028;-81
2023/12/08 13:27:13;;;;;;;17.52;7.22;;;;;;;;;;5086675;28;20512;-81
2023/12/08 13:29:39;;;;;;;14.07;6.72;;;;;;;;;;5074288;28;20032;-81
2023/12/08 13:32:05;;;;;;;16.38;6.65;;;;;;;;;;5071608;28;20028;-81
2023/12/08 13:34:31;;;;;;;17.42;7.85;;;;;;;;;;5081861;28;20020;-81
2023/12/08 13:36:57;;;;;;;11.60;6.05;;;;;;;;;;5069805;28;20036;-81
2023/12/08 13:39:23;;;;;;;15.45;7.15;;;;;;;;;;5087020;28;20065;-81
2023/12/08 13:41:49;;;;;;;14.32;7.13;;;;;;;;;;5090656;28;20028;-80
2023/12/08 13:44:16;;;;;;;16.63;7.55;;;;;;;;;;5088209;28;20034;-81
2023/12/08 13:46:43;;;;;;;11.73;6.82;;;;;;;;;;5088187;28;20024;-80
2023/12/08 13:49:09;;;;;;;13.85;5.68;;;;;;;;;;5067593;28;20036;-81
2023/12/08 13:51:36;;;;;;;15.10;6.38;;;;;;;;;;5089052;28;20024;-81
2023/12/08 13:54:02;;;;;;;15.98;6.65;;;;;;;;;;5070745;28;20089;-81
2023/12/08 13:56:28;;;;;;;17.92;9.00;;;;;;;;;;5086556;28;20040;-80
2023/12/08 13:58:54;;;;;;;16.30;7.47;;;;;;;;;;5089195;28;20112;-81
2023/12/08 14:01:21;;;;;;;16.10;7.15;;;4.70;99.90;;;;;;5086873;28;20096;-80
2023/12/08 14:03:47;;;;;;;13.50;6.25;;;4.40;99.90;;;;;;5088036;28;20063;-80
2023/12/08 14:06:13;;;;;;;13.77;6.82;;;;;;;;;;5081072;28;20111;-80
2023/12/08 14:08:39;;;;;;;14.30;7.25;;;;;;;;;;5090790;28;20047;-81
2023/12/08 14:11:05;;;;;;;16.48;7.63;;;;;;;;;;5090076;28;20031;-81
2023/12/08 14:13:32;;;;;;;13.57;6.43;;;;;;;;;;5068741;28;20069;-80
2023/12/08 14:15:58;;;;;;;16.25;7.15;;;;;;;;;;5088288;28;20038;-80
2023/12/08 14:18:24;;;;;;;15.60;7.35;;;;;;;;;;5070514;28;20608;-81
2023/12/08 14:20:50;;;;;;;16.85;7.63;;;;;;;;;;5070241;28;20437;-81
2023/12/08 14:23:16;;;;;;;14.85;6.90;;;;;;;;;;5071679;28;20036;-80